createdAt,value
2023-03-08T00:00:28.560Z,99279.00
2023-03-08T00:02:56.661Z,99284.00
2023-03-08T00:05:23.521Z,99292.00
2023-03-08T00:07:53.445Z,99292.00
2023-03-08T00:10:20.261Z,99283.00
2023-03-08T00:12:47.012Z,99306.00
2023-03-08T00:15:14.190Z,99312.00
2023-03-08T00:17:41.576Z,99300.00
2023-03-08T00:20:11.661Z,99304.00
2023-03-08T00:22:40.195Z,99317.00
2023-03-08T00:25:09.132Z,99315.00
2023-03-08T00:27:38.999Z,99320.00
2023-03-08T00:30:06.607Z,99308.00
2023-03-08T00:32:33.410Z,99310.00
2023-03-08T00:35:00.240Z,99315.00
2023-03-08T00:37:26.979Z,99330.00
2023-03-08T00:39:54.654Z,99321.00
2023-03-08T00:42:22.713Z,99316.00
2023-03-08T00:44:49.610Z,99331.00
2023-03-08T00:47:17.176Z,99329.00
2023-03-08T00:49:45.021Z,99327.00
2023-03-08T00:52:11.943Z,99333.00
2023-03-08T00:54:38.729Z,99320.00
2023-03-08T00:57:06.461Z,99326.00
2023-03-08T00:59:33.243Z,99326.00
2023-03-08T01:02:01.290Z,99334.00
2023-03-08T01:04:28.219Z,99325.00
2023-03-08T01:06:54.973Z,99327.00
2023-03-08T01:09:21.758Z,99329.00
2023-03-08T01:11:48.508Z,99340.00
2023-03-08T01:14:15.549Z,99346.00
2023-03-08T01:16:42.681Z,99341.00
2023-03-08T01:19:10.717Z,99353.00
2023-03-08T01:21:38.124Z,99347.00
2023-03-08T01:24:05.917Z,99353.00
2023-03-08T01:26:32.723Z,99348.00
2023-03-08T01:28:59.501Z,99339.00
2023-03-08T01:31:29.530Z,99356.00
2023-03-08T01:33:57.996Z,99344.00
2023-03-08T01:36:28.341Z,99349.00
2023-03-08T01:38:55.806Z,99351.00
2023-03-08T01:41:29.883Z,99353.00
2023-03-08T01:43:57.137Z,99349.00
2023-03-08T01:46:27.187Z,99356.00
2023-03-08T01:49:08.062Z,99347.00
2023-03-08T01:51:49.662Z,99346.00
2023-03-08T01:54:28.492Z,99356.00
2023-03-08T01:57:04.372Z,99366.00
2023-03-08T01:59:34.501Z,99352.00
2023-03-08T02:02:02.743Z,99352.00
2023-03-08T02:04:29.625Z,99356.00
2023-03-08T02:06:56.421Z,99371.00
2023-03-08T02:09:24.139Z,99360.00
2023-03-08T02:11:52.124Z,99378.00
2023-03-08T02:14:18.871Z,99366.00
2023-03-08T02:16:45.656Z,99368.00
2023-03-08T02:19:31.617Z,99368.00
2023-03-08T02:21:58.394Z,99360.00
2023-03-08T02:24:25.927Z,99367.00
2023-03-08T02:27:04.858Z,99363.00
2023-03-08T02:29:31.623Z,99358.00
2023-03-08T02:31:58.348Z,99354.00
2023-03-08T02:34:25.228Z,99364.00
2023-03-08T02:36:51.950Z,99368.00
2023-03-08T02:39:18.740Z,99370.00
2023-03-08T02:41:45.473Z,99374.00
2023-03-08T02:44:12.245Z,99377.00
2023-03-08T02:46:38.959Z,99368.00
2023-03-08T02:49:05.868Z,99383.00
2023-03-08T02:51:32.598Z,99377.00
2023-03-08T02:53:59.488Z,99380.00
2023-03-08T02:56:26.274Z,99384.00
2023-03-08T02:58:53.087Z,99376.00
2023-03-08T03:01:19.852Z,99377.00
2023-03-08T03:03:46.598Z,99369.00
2023-03-08T03:06:19.976Z,99366.00
2023-03-08T03:08:46.894Z,99367.00
2023-03-08T03:11:17.300Z,99381.00
2023-03-08T03:13:44.854Z,99380.00
2023-03-08T03:16:15.956Z,99385.00
2023-03-08T03:18:42.996Z,99385.00
2023-03-08T03:21:13.686Z,99380.00
2023-03-08T03:23:42.276Z,99380.00
2023-03-08T03:26:13.820Z,99381.00
2023-03-08T03:28:41.273Z,99380.00
2023-03-08T03:31:18.555Z,99374.00
2023-03-08T03:33:46.316Z,99374.00
2023-03-08T03:36:16.683Z,99378.00
2023-03-08T03:38:44.510Z,99393.00
2023-03-08T03:41:15.491Z,99396.00
2023-03-08T03:43:42.649Z,99408.00
2023-03-08T03:46:13.969Z,99398.00
2023-03-08T03:48:41.172Z,99408.00
2023-03-08T03:51:13.135Z,99407.00
2023-03-08T03:53:40.446Z,99420.00
2023-03-08T03:56:13.689Z,99415.00
2023-03-08T03:58:41.350Z,99426.00
2023-03-08T04:01:16.596Z,99417.00
2023-03-08T04:03:44.265Z,99428.00
2023-03-08T04:06:15.840Z,99426.00
2023-03-08T04:08:43.377Z,99426.00
2023-03-08T04:11:17.154Z,99431.00
2023-03-08T04:13:44.653Z,99443.00
2023-03-08T04:16:15.241Z,99441.00
2023-03-08T04:18:43.158Z,99440.00
2023-03-08T04:21:10.929Z,99434.00
2023-03-08T04:23:37.813Z,99430.00
2023-03-08T04:26:06.043Z,99432.00
2023-03-08T04:28:33.926Z,99425.00
2023-03-08T04:31:14.833Z,99434.00
2023-03-08T04:33:41.655Z,99429.00
2023-03-08T04:36:09.089Z,99440.00
2023-03-08T04:38:36.323Z,99436.00
2023-03-08T04:41:13.061Z,99437.00
2023-03-08T04:43:46.514Z,99441.00
2023-03-08T04:46:14.103Z,99434.00
2023-03-08T04:48:41.360Z,99431.00
2023-03-08T04:51:11.424Z,99427.00
2023-03-08T04:53:39.249Z,99420.00
2023-03-08T04:56:08.636Z,99422.00
2023-03-08T04:58:37.670Z,99432.00
2023-03-08T05:01:14.967Z,99427.00
2023-03-08T05:03:42.231Z,99423.00
2023-03-08T05:06:10.459Z,99429.00
2023-03-08T05:08:37.926Z,99427.00
2023-03-08T05:11:05.034Z,99430.00
2023-03-08T05:13:38.009Z,99431.00
2023-03-08T05:16:07.899Z,99430.00
2023-03-08T05:18:35.409Z,99433.00
2023-03-08T05:21:10.250Z,99416.00
2023-03-08T05:23:37.199Z,99434.00
2023-03-08T05:26:07.020Z,99442.00
2023-03-08T05:28:37.114Z,99444.00
2023-03-08T05:31:12.291Z,99441.00
2023-03-08T05:33:40.805Z,99442.00
2023-03-08T05:36:09.165Z,99448.00
2023-03-08T05:38:35.895Z,99450.00
2023-03-08T05:41:06.697Z,99456.00
2023-03-08T05:43:34.389Z,99455.00
2023-03-08T05:46:08.642Z,99459.00
2023-03-08T05:48:36.966Z,99458.00
2023-03-08T05:51:13.147Z,99455.00
2023-03-08T05:53:40.058Z,99450.00
2023-03-08T05:56:20.144Z,99460.00
2023-03-08T05:58:48.335Z,99470.00
2023-03-08T06:01:20.384Z,99475.00
2023-03-08T06:03:50.388Z,99462.00
2023-03-08T06:06:18.652Z,99464.00
2023-03-08T06:08:46.613Z,99473.00
2023-03-08T06:11:14.094Z,99465.00
2023-03-08T06:13:41.244Z,99465.00
2023-03-08T06:16:09.081Z,99464.00
2023-03-08T06:18:38.743Z,99474.00
2023-03-08T06:21:15.140Z,99475.00
2023-03-08T06:23:42.332Z,99468.00
2023-03-08T06:26:10.810Z,99475.00
2023-03-08T06:28:40.301Z,99475.00
2023-03-08T06:31:09.116Z,99482.00
2023-03-08T06:33:35.887Z,99476.00
2023-03-08T06:36:14.849Z,99487.00
2023-03-08T06:38:42.643Z,99480.00
2023-03-08T06:41:12.522Z,99483.00
2023-03-08T06:43:39.619Z,99484.00
2023-03-08T06:46:10.332Z,99484.00
2023-03-08T06:48:38.095Z,99478.00
2023-03-08T06:51:06.024Z,99480.00
2023-03-08T06:53:36.027Z,99484.00
2023-03-08T06:56:03.778Z,99488.00
2023-03-08T06:58:31.629Z,99476.00
2023-03-08T07:01:04.246Z,99477.00
2023-03-08T07:03:31.428Z,99474.00
2023-03-08T07:06:06.525Z,99468.00
2023-03-08T07:08:33.757Z,99463.00
2023-03-08T07:11:01.254Z,99468.00
2023-03-08T07:13:30.067Z,99468.00
2023-03-08T07:15:57.585Z,99465.00
2023-03-08T07:18:25.098Z,99464.00
2023-03-08T07:20:56.900Z,99465.00
2023-03-08T07:23:24.615Z,99470.00
2023-03-08T07:25:51.365Z,99473.00
2023-03-08T07:28:18.164Z,99467.00
2023-03-08T07:30:50.862Z,99464.00
2023-03-08T07:33:19.899Z,99475.00
2023-03-08T07:35:46.899Z,99464.00
2023-03-08T07:38:14.597Z,99477.00
2023-03-08T07:40:41.411Z,99473.00
2023-03-08T07:43:08.370Z,99472.00
2023-03-08T07:45:35.489Z,99477.00
2023-03-08T07:48:02.325Z,99471.00
2023-03-08T07:50:29.142Z,99466.00
2023-03-08T07:52:55.882Z,99474.00
2023-03-08T07:55:22.747Z,99477.00
2023-03-08T07:57:49.463Z,99473.00
2023-03-08T08:00:17.110Z,99470.00
2023-03-08T08:02:43.921Z,99476.00
2023-03-08T08:05:10.823Z,99469.00
2023-03-08T08:07:37.562Z,99464.00
2023-03-08T08:10:06.133Z,99470.00
2023-03-08T08:12:34.278Z,99467.00
2023-03-08T08:15:01.047Z,99464.00
2023-03-08T08:17:27.806Z,99468.00
2023-03-08T08:19:54.567Z,99473.00
2023-03-08T08:22:21.277Z,99470.00
2023-03-08T08:24:47.992Z,99468.00
2023-03-08T08:27:15.398Z,99464.00
2023-03-08T08:29:44.030Z,99467.00
2023-03-08T08:32:10.803Z,99448.00
2023-03-08T08:34:37.556Z,99461.00
2023-03-08T08:37:04.619Z,99457.00
2023-03-08T08:39:31.362Z,99463.00
2023-03-08T08:41:58.076Z,99456.00
2023-03-08T08:44:24.842Z,99453.00
2023-03-08T08:46:51.576Z,99450.00
2023-03-08T08:49:18.325Z,99454.00
2023-03-08T08:51:45.376Z,99457.00
2023-03-08T08:54:12.200Z,99459.00
2023-03-08T08:56:42.841Z,99442.00
2023-03-08T08:59:12.452Z,99439.00
2023-03-08T09:01:43.877Z,99427.00
2023-03-08T09:04:13.705Z,99432.00
2023-03-08T09:06:40.924Z,99418.00
2023-03-08T09:09:08.438Z,99425.00
2023-03-08T09:11:48.523Z,99419.00
2023-03-08T09:14:20.330Z,99412.00
2023-03-08T09:16:47.127Z,99428.00
2023-03-08T09:19:13.888Z,99425.00
2023-03-08T09:21:40.656Z,99418.00
2023-03-08T09:24:09.933Z,99424.00
2023-03-08T09:26:36.882Z,99421.00
2023-03-08T09:29:05.513Z,99430.00
2023-03-08T09:31:35.799Z,99430.00
2023-03-08T09:34:05.174Z,99424.00
2023-03-08T09:36:31.926Z,99422.00
2023-03-08T09:38:58.721Z,99420.00
2023-03-08T09:41:43.423Z,99416.00
2023-03-08T09:44:31.723Z,99415.00
2023-03-08T09:47:15.169Z,99411.00
2023-03-08T09:49:47.022Z,99416.00
2023-03-08T09:52:48.758Z,99414.00
2023-03-08T09:55:30.363Z,99400.00
2023-03-08T09:58:02.957Z,99400.00
2023-03-08T10:00:35.401Z,99400.00
2023-03-08T10:03:40.550Z,99385.00
2023-03-08T10:06:37.324Z,99384.00
2023-03-08T10:09:43.712Z,99384.00
2023-03-08T10:13:04.203Z,99384.00
2023-03-08T10:15:40.680Z,99388.00
2023-03-08T10:18:37.192Z,99377.00
2023-03-08T10:21:04.136Z,99382.00
2023-03-08T10:23:33.646Z,99376.00
2023-03-08T10:26:02.970Z,99373.00
2023-03-08T10:28:29.804Z,99380.00
2023-03-08T10:31:01.791Z,99372.00
2023-03-08T10:33:36.096Z,99375.00
2023-03-08T10:36:22.614Z,99385.00
2023-03-08T10:39:04.887Z,99374.00
2023-03-08T10:41:40.980Z,99373.00
2023-03-08T10:44:30.979Z,99367.00
2023-03-08T10:46:57.815Z,99364.00
2023-03-08T10:49:27.870Z,99363.00
2023-03-08T10:52:01.761Z,99365.00
2023-03-08T10:54:29.202Z,99357.00
2023-03-08T10:57:00.694Z,99361.00
2023-03-08T10:59:33.220Z,99347.00
2023-03-08T11:02:22.303Z,99345.00
2023-03-08T11:04:58.217Z,99354.00
2023-03-08T11:07:32.763Z,99337.00
2023-03-08T11:10:18.330Z,99339.00
2023-03-08T11:12:45.870Z,99335.00
2023-03-08T11:15:18.910Z,99330.00
2023-03-08T11:18:04.779Z,99326.00
2023-03-08T11:20:45.443Z,99336.00
2023-03-08T11:23:23.633Z,99334.00
2023-03-08T11:26:22.121Z,99315.00
2023-03-08T11:29:14.773Z,99311.00
2023-03-08T11:32:32.394Z,99300.00
2023-03-08T11:35:19.635Z,99289.00
2023-03-08T11:38:01.884Z,99289.00
2023-03-08T11:41:17.932Z,99289.00
2023-03-08T11:44:06.121Z,99290.00
2023-03-08T11:46:59.826Z,99279.00
2023-03-08T11:50:05.904Z,99277.00
2023-03-08T11:52:54.237Z,99283.00
2023-03-08T11:55:43.869Z,99275.00
2023-03-08T11:58:42.308Z,99273.00
2023-03-08T12:01:21.749Z,99262.00
2023-03-08T12:03:58.656Z,99269.00
2023-03-08T12:06:38.308Z,99258.00
2023-03-08T12:09:10.559Z,99262.00
2023-03-08T12:11:49.608Z,99256.00
2023-03-08T12:14:22.971Z,99248.00
2023-03-08T12:17:25.908Z,99238.00
2023-03-08T12:19:53.860Z,99231.00
2023-03-08T12:23:04.091Z,99242.00
2023-03-08T12:25:35.815Z,99234.00
2023-03-08T12:28:24.428Z,99236.00
2023-03-08T12:31:28.933Z,99227.00
2023-03-08T12:33:58.125Z,99220.00
2023-03-08T12:36:57.579Z,99219.00
2023-03-08T12:39:36.242Z,99230.00
2023-03-08T12:42:12.207Z,99219.00
2023-03-08T12:44:40.200Z,99213.00
2023-03-08T12:47:13.262Z,99224.00
2023-03-08T12:49:49.820Z,99210.00
2023-03-08T12:52:19.428Z,99205.00
2023-03-08T12:55:00.444Z,99209.00
2023-03-08T12:57:43.022Z,99211.00
2023-03-08T13:00:36.214Z,99208.00
2023-03-08T13:03:13.905Z,99210.00
2023-03-08T13:05:47.348Z,99215.00
2023-03-08T13:08:14.033Z,99220.00
2023-03-08T13:10:52.987Z,99221.00
2023-03-08T13:13:48.170Z,99209.00
2023-03-08T13:16:28.964Z,99224.00
2023-03-08T13:19:14.003Z,99204.00
2023-03-08T13:22:20.146Z,99217.00
2023-03-08T13:25:01.338Z,99206.00
2023-03-08T13:27:55.279Z,99217.00
2023-03-08T13:30:34.827Z,99221.00
2023-03-08T13:33:12.255Z,99206.00
2023-03-08T13:35:39.427Z,99215.00
2023-03-08T13:38:06.351Z,99215.00
2023-03-08T13:40:34.017Z,99215.00
2023-03-08T13:43:10.900Z,99214.00
2023-03-08T13:45:37.985Z,99219.00
2023-03-08T13:48:09.125Z,99219.00
2023-03-08T13:50:41.794Z,99207.00
2023-03-08T13:53:17.131Z,99221.00
2023-03-08T13:55:50.716Z,99220.00
2023-03-08T13:58:46.021Z,99212.00
2023-03-08T14:01:15.586Z,99226.00
2023-03-08T14:03:44.048Z,99215.00
2023-03-08T14:06:29.834Z,99220.00
2023-03-08T14:09:04.430Z,99226.00
2023-03-08T14:11:39.748Z,99219.00
2023-03-08T14:14:36.532Z,99221.00
2023-03-08T14:17:04.822Z,99220.00
2023-03-08T14:19:39.791Z,99216.00
2023-03-08T14:22:32.281Z,99214.00
2023-03-08T14:25:05.059Z,99224.00
2023-03-08T14:27:41.711Z,99211.00
2023-03-08T14:30:22.085Z,99209.00
2023-03-08T14:33:01.856Z,99206.00
2023-03-08T14:35:38.513Z,99199.00
2023-03-08T14:38:20.169Z,99203.00
2023-03-08T14:40:49.709Z,99195.00
2023-03-08T14:43:24.515Z,99196.00
2023-03-08T14:46:01.952Z,99189.00
2023-03-08T14:48:34.718Z,99188.00
2023-03-08T14:51:24.649Z,99180.00
2023-03-08T14:54:08.580Z,99185.00
2023-03-08T14:56:35.362Z,99177.00
2023-03-08T14:59:05.458Z,99176.00
2023-03-08T15:01:35.809Z,99189.00
2023-03-08T15:04:05.008Z,99186.00
2023-03-08T15:06:35.332Z,99177.00
2023-03-08T15:09:06.466Z,99187.00
2023-03-08T15:11:33.493Z,99192.00
2023-03-08T15:14:01.315Z,99184.00
2023-03-08T15:16:28.182Z,99193.00
2023-03-08T15:18:55.220Z,99176.00
2023-03-08T15:21:29.237Z,99175.00
2023-03-08T15:23:56.786Z,99180.00
2023-03-08T15:26:31.688Z,99166.00
2023-03-08T15:28:59.497Z,99157.00
2023-03-08T15:31:26.330Z,99161.00
2023-03-08T15:33:53.227Z,99145.00
2023-03-08T15:36:20.309Z,99155.00
2023-03-08T15:38:47.156Z,99158.00
2023-03-08T15:41:15.893Z,99160.00
2023-03-08T15:43:43.386Z,99152.00
2023-03-08T15:46:13.944Z,99150.00
2023-03-08T15:48:41.848Z,99148.00
2023-03-08T15:51:18.799Z,99141.00
2023-03-08T15:53:46.105Z,99140.00
2023-03-08T15:56:12.994Z,99139.00
2023-03-08T15:58:39.972Z,99130.00
2023-03-08T16:01:07.387Z,99139.00
2023-03-08T16:03:35.017Z,99137.00
2023-03-08T16:06:02.773Z,99125.00
2023-03-08T16:08:30.629Z,99130.00
2023-03-08T16:11:03.546Z,99120.00
2023-03-08T16:13:31.067Z,99144.00
2023-03-08T16:16:00.401Z,99123.00
2023-03-08T16:18:29.936Z,99126.00
2023-03-08T16:20:58.318Z,99137.00
2023-03-08T16:23:26.044Z,99135.00
2023-03-08T16:26:15.195Z,99131.00
2023-03-08T16:28:47.238Z,99129.00
2023-03-08T16:31:16.616Z,99126.00
2023-03-08T16:33:43.655Z,99131.00
2023-03-08T16:36:12.045Z,99129.00
2023-03-08T16:38:39.917Z,99127.00
2023-03-08T16:41:12.772Z,99132.00
2023-03-08T16:43:48.313Z,99125.00
2023-03-08T16:46:21.632Z,99117.00
2023-03-08T16:48:53.387Z,99113.00
2023-03-08T16:51:23.072Z,99120.00
2023-03-08T16:53:50.385Z,99118.00
2023-03-08T16:56:20.079Z,99120.00
2023-03-08T16:58:47.341Z,99115.00
2023-03-08T17:01:17.286Z,99117.00
2023-03-08T17:03:44.295Z,99110.00
2023-03-08T17:06:16.016Z,99115.00
2023-03-08T17:08:43.025Z,99114.00
2023-03-08T17:11:19.206Z,99113.00
2023-03-08T17:13:58.676Z,99119.00
2023-03-08T17:16:29.294Z,99117.00
2023-03-08T17:18:58.501Z,99123.00
2023-03-08T17:21:25.833Z,99113.00
2023-03-08T17:23:53.399Z,99116.00
2023-03-08T17:26:23.275Z,99109.00
2023-03-08T17:28:54.589Z,99117.00
2023-03-08T17:31:23.807Z,99110.00
2023-03-08T17:33:51.389Z,99110.00
2023-03-08T17:36:19.293Z,99111.00
2023-03-08T17:38:46.368Z,99113.00
2023-03-08T17:41:15.710Z,99110.00
2023-03-08T17:43:43.120Z,99115.00
2023-03-08T17:46:15.509Z,99124.00
2023-03-08T17:48:42.965Z,99115.00
2023-03-08T17:51:16.329Z,99106.00
2023-03-08T17:53:45.372Z,99098.00
2023-03-08T17:56:22.503Z,99098.00
2023-03-08T17:58:49.890Z,99100.00
2023-03-08T18:01:23.509Z,99103.00
2023-03-08T18:03:51.612Z,99098.00
2023-03-08T18:06:28.862Z,99098.00
2023-03-08T18:08:57.809Z,99097.00
2023-03-08T18:11:25.339Z,99103.00
2023-03-08T18:13:52.808Z,99093.00
2023-03-08T18:16:22.501Z,99103.00
2023-03-08T18:18:50.239Z,99100.00
2023-03-08T18:21:18.836Z,99103.00
2023-03-08T18:23:46.630Z,99096.00
2023-03-08T18:26:16.369Z,99113.00
2023-03-08T18:28:43.165Z,99114.00
2023-03-08T18:31:14.717Z,99111.00
2023-03-08T18:33:41.693Z,99121.00
2023-03-08T18:36:09.000Z,99113.00
2023-03-08T18:38:36.201Z,99120.00
2023-03-08T18:41:22.446Z,99121.00
2023-03-08T18:43:51.086Z,99117.00
2023-03-08T18:46:18.412Z,99117.00
2023-03-08T18:48:51.255Z,99117.00
2023-03-08T18:51:18.029Z,99115.00
2023-03-08T18:53:44.764Z,99125.00
2023-03-08T18:56:11.814Z,99134.00
2023-03-08T18:58:38.571Z,99127.00
2023-03-08T19:01:13.418Z,99118.00
2023-03-08T19:03:41.687Z,99118.00
2023-03-08T19:06:10.165Z,99125.00
2023-03-08T19:08:37.320Z,99114.00
2023-03-08T19:11:19.816Z,99106.00
2023-03-08T19:13:47.857Z,99102.00
2023-03-08T19:16:31.650Z,99092.00
2023-03-08T19:19:05.350Z,99091.00
2023-03-08T19:21:35.891Z,99098.00
2023-03-08T19:24:03.126Z,99098.00
2023-03-08T19:26:36.937Z,99097.00
2023-03-08T19:29:12.270Z,99092.00
2023-03-08T19:32:00.190Z,99093.00
2023-03-08T19:34:34.486Z,99084.00
2023-03-08T19:37:02.540Z,99092.00
2023-03-08T19:39:32.845Z,99083.00
2023-03-08T19:42:06.713Z,99079.00
2023-03-08T19:44:33.946Z,99071.00
2023-03-08T19:47:01.637Z,99082.00
2023-03-08T19:49:32.135Z,99072.00
2023-03-08T19:52:02.492Z,99077.00
2023-03-08T19:54:30.940Z,99074.00
2023-03-08T19:56:59.074Z,99062.00
2023-03-08T19:59:26.870Z,99080.00
2023-03-08T20:01:55.877Z,99080.00
2023-03-08T20:04:23.568Z,99071.00
2023-03-08T20:06:51.483Z,99076.00
2023-03-08T20:09:23.997Z,99078.00
2023-03-08T20:11:57.452Z,99067.00
2023-03-08T20:14:27.201Z,99059.00
2023-03-08T20:16:54.744Z,99066.00
2023-03-08T20:19:21.645Z,99072.00
2023-03-08T20:21:48.846Z,99075.00
2023-03-08T20:24:18.163Z,99078.00
2023-03-08T20:26:45.311Z,99066.00
2023-03-08T20:29:12.187Z,99069.00
2023-03-08T20:31:39.077Z,99081.00
2023-03-08T20:34:05.788Z,99068.00
2023-03-08T20:36:32.569Z,99078.00
2023-03-08T20:39:00.388Z,99071.00
2023-03-08T20:41:28.468Z,99059.00
2023-03-08T20:43:55.823Z,99072.00
2023-03-08T20:46:32.886Z,99068.00
2023-03-08T20:49:00.750Z,99077.00
2023-03-08T20:51:28.288Z,99075.00
2023-03-08T20:53:56.100Z,99068.00
2023-03-08T20:56:25.789Z,99072.00
2023-03-08T20:58:55.870Z,99074.00
2023-03-08T21:01:27.986Z,99075.00
2023-03-08T21:03:54.886Z,99078.00
2023-03-08T21:06:25.629Z,99071.00
2023-03-08T21:08:53.240Z,99070.00
2023-03-08T21:11:21.464Z,99054.00
2023-03-08T21:13:51.044Z,99056.00
2023-03-08T21:16:21.362Z,99055.00
2023-03-08T21:18:58.051Z,99073.00
2023-03-08T21:21:36.136Z,99066.00
2023-03-08T21:24:07.875Z,99065.00
2023-03-08T21:26:35.139Z,99059.00
2023-03-08T21:29:05.765Z,99077.00
2023-03-08T21:31:36.255Z,99061.00
2023-03-08T21:34:06.156Z,99066.00
2023-03-08T21:36:34.273Z,99077.00
2023-03-08T21:39:01.148Z,99063.00
2023-03-08T21:41:33.287Z,99069.00
2023-03-08T21:44:03.541Z,99065.00
2023-03-08T21:46:30.627Z,99065.00
2023-03-08T21:48:58.093Z,99062.00
2023-03-08T21:51:25.167Z,99063.00
2023-03-08T21:53:51.922Z,99075.00
2023-03-08T21:56:19.632Z,99064.00
2023-03-08T21:58:46.636Z,99064.00
2023-03-08T22:01:33.582Z,99065.00
2023-03-08T22:04:02.256Z,99050.00
2023-03-08T22:06:29.745Z,99060.00
2023-03-08T22:08:57.386Z,99050.00
2023-03-08T22:11:25.785Z,99056.00
2023-03-08T22:13:59.141Z,99061.00
2023-03-08T22:16:28.342Z,99071.00
2023-03-08T22:18:59.759Z,99064.00
2023-03-08T22:21:27.863Z,99063.00
2023-03-08T22:23:57.668Z,99067.00
2023-03-08T22:26:26.899Z,99067.00
2023-03-08T22:28:55.240Z,99056.00
2023-03-08T22:31:25.399Z,99058.00
2023-03-08T22:33:52.930Z,99053.00
2023-03-08T22:36:21.345Z,99047.00
2023-03-08T22:38:48.720Z,99061.00
2023-03-08T22:41:24.148Z,99050.00
2023-03-08T22:43:51.518Z,99041.00
2023-03-08T22:46:22.885Z,99051.00
2023-03-08T22:48:51.091Z,99062.00
2023-03-08T22:51:20.781Z,99043.00
2023-03-08T22:53:47.896Z,99030.00
2023-03-08T22:56:26.114Z,99040.00
2023-03-08T22:58:52.913Z,99031.00
2023-03-08T23:01:23.450Z,99025.00
2023-03-08T23:03:55.256Z,99024.00
2023-03-08T23:06:23.782Z,99026.00
2023-03-08T23:08:50.775Z,99015.00
2023-03-08T23:11:17.588Z,99006.00
2023-03-08T23:13:44.466Z,99011.00
2023-03-08T23:16:14.307Z,99010.00
2023-03-08T23:18:42.263Z,99003.00
2023-03-08T23:21:14.624Z,98998.00
2023-03-08T23:23:41.952Z,98994.00
2023-03-08T23:26:13.953Z,98984.00
2023-03-08T23:28:41.573Z,98978.00
2023-03-08T23:31:18.774Z,98983.00
2023-03-08T23:33:46.140Z,98994.00
2023-03-08T23:36:16.428Z,98994.00
2023-03-08T23:38:43.724Z,98989.00
2023-03-08T23:41:13.331Z,98975.00
2023-03-08T23:43:40.574Z,98972.00
2023-03-08T23:46:14.491Z,98958.00
2023-03-08T23:48:41.686Z,98958.00
2023-03-08T23:51:12.584Z,98972.00
2023-03-08T23:53:39.869Z,98965.00
2023-03-08T23:56:15.983Z,98968.00
2023-03-08T23:58:42.753Z,98967.00
